Date,TemperatureHighF,TemperatureAvgF,TemperatureLowF,DewpointHighF,DewpointAvgF,DewpointLowF,HumidityHigh,HumidityAvg,HumidityLow,PressureMaxIn,PressureMinIn,WindSpeedMaxMPH,WindSpeedAvgMPH,GustSpeedMaxMPH,PrecipitationSumIn
2013-9-1,74.8,64.9,55.4,59.5,49.2,42.1,81,58,33,29.98,29.72,11,2,11,0.00
2013-9-2,64.4,54.9,50.5,46.6,40.5,34.0,76,60,34,30.10,29.98,7,0,7,0.00
2013-9-3,76.5,62.3,49.6,43.6,40.4,37.3,72,47,28,30.10,29.96,8,2,8,0.00
2013-9-4,67.8,60.7,50.0,48.6,41.4,37.0,74,50,35,30.22,29.98,9,1,9,0.00
2013-9-5,76.3,59.0,47.3,54.2,43.0,35.9,85,60,25,30.31,30.16,5,0,5,0.00
2013-9-6,85.1,71.1,60.1,59.8,51.4,39.5,70,51,31,30.16,29.90,7,3,8,0.00
2013-9-7,77.5,67.0,55.4,61.6,52.6,42.6,83,61,42,30.16,29.90,7,1,7,0.00
2013-9-8,65.7,58.4,48.7,54.2,45.9,37.9,84,65,38,30.19,29.96,6,0,6,0.00
2013-9-9,70.3,64.1,60.1,66.9,57.5,50.5,89,79,68,29.96,29.69,5,0,5,0.12
2013-9-10,75.7,68.0,64.0,64.3,58.6,48.9,90,74,41,29.96,29.75,9,1,9,0.04
2013-9-11,74.8,64.9,54.5,58.6,49.2,37.9,85,60,27,30.07,29.96,9,1,9,0.08
2013-9-12,64.2,54.5,45.0,52.2,40.9,32.0,86,63,33,30.25,30.04,9,2,9,0.04
2013-9-13,66.4,50.4,42.4,47.0,36.6,32.3,85,62,30,30.31,30.10,5,0,5,0.00
2013-9-14,67.8,57.5,48.2,45.6,38.0,32.9,70,49,34,30.10,29.96,9,2,9,0.00
2013-9-15,55.2,49.7,37.0,48.9,40.0,29.9,84,70,48,30.34,29.98,9,1,9,0.00
2013-9-16,65.5,47.5,35.2,44.1,32.7,28.8,84,60,27,30.46,30.31,5,0,5,0.00
2013-9-17,70.7,55.5,43.0,39.7,34.3,29.8,74,47,26,30.31,30.01,8,3,8,0.00
2013-9-18,64.4,61.0,56.7,59.9,54.1,39.7,87,78,50,30.01,29.81,6,0,6,0.04
2013-9-19,72.7,66.3,61.3,68.0,61.1,57.4,90,84,66,29.81,29.69,8,0,8,0.63
2013-9-20,65.8,57.9,50.2,61.9,45.2,33.3,87,64,39,29.87,29.72,12,2,12,0.00
2013-9-21,59.7,49.1,37.8,36.8,30.7,24.6,71,50,30,30.01,29.87,7,1,7,0.00
2013-9-22,61.2,46.6,35.6,40.4,32.9,28.1,78,61,34,30.10,29.98,6,1,6,0.00
2013-9-23,72.9,56.2,45.9,40.5,36.3,31.4,75,49,28,30.07,29.98,9,3,9,0.00
2013-9-24,75.7,56.5,47.8,44.2,39.9,33.4,76,57,23,30.07,29.98,6,1,6,0.00
2013-9-25,66.7,49.6,44.6,50.4,42.2,36.7,83,76,39,30.04,29.98,6,0,6,0.00
2013-9-26,72.3,56.5,45.5,50.4,44.3,39.3,88,67,33,30.07,29.98,6,0,6,0.00
2013-9-27,73.2,66.1,57.0,52.3,42.5,37.7,63,43,33,30.04,29.93,7,2,7,0.00
2013-9-28,72.7,61.0,47.8,57.2,42.4,35.8,79,53,32,29.93,29.63,12,4,12,0.12
2013-9-29,72.9,55.7,44.8,40.9,35.5,28.9,82,51,22,29.98,29.87,7,2,7,0.00
2013-9-30,73.8,62.3,54.5,40.0,35.8,33.4,47,38,26,29.87,29.66,14,4,14,0.00